To NAV CANADA Home Page Login to a new session Search on AWWS site Disclaimer Vers la page française équivalente Tips FAQ What's new on the site To the Forecasts and Observations / NOTAM section To "File a Flight Plan" website Publications and other links Update of the User's profile FIC Telephone Numbers My Weather Data Folder Route Weather Data Regional Weather Data Local Weather Data To the Forecasts and Observations / NOTAM section
Request Generated 06/25/2021 at 14:01:04 UTC . Weather information available at that time is displayed.

METAR/TAF

TORONTO/LESTER B. PEARSON INTL/ON    

METAR CYYZ 251400Z 16007KT 15SM FEW055 SCT062 BKN120 OVC150 21/15 A3010 RMK CU1SC2AC2AC3 SLP193 DENSITY ALT 1300FT=
METAR CYYZ 251300Z 15007KT 15SM FEW060 FEW120 OVC150 20/14 A3010 RMK CU1AC1AC7 CU TR SLP192 DENSITY ALT 1200FT=
METAR CYYZ 251200Z 16005KT 15SM FEW065 FEW110 OVC160 21/14 A3010 RMK CU1AC2AC6 CU TR SLP193 DENSITY ALT 1200FT=

TAF CYYZ 251139Z 2512/2618 15010KT P6SM FEW060 BKN100 OVC150
FM251500 17012G22KT P6SM BKN050 TEMPO 2515/2521 SCT050
FM252100 18010KT P6SM OVC050 TEMPO 2521/2603 P6SM -SHRA
FM260300 18012KT P6SM -RA OVC040
FM260600 20015G25KT 5SM -SHRA BR OVC020
FM260900 20015G28KT 4SM -SHRA BR BKN008 OVC015
FM261200 23015G25KT 5SM -SHRA BR OVC012
RMK NXT FCST BY 251500Z=

KITCHENER/WATERLOO/ON    (show WxCam)

METAR CYKF 251300Z AUTO 17009KT 9SM BKN170 BKN210 20/15 A3010 RMK SLP191 DENSITY ALT 1700FT=
METAR CYKF 251200Z AUTO 18008KT 9SM OVC160 20/14 A3010 RMK SLP191 DENSITY ALT 1700FT=
METAR CYKF 251100Z AUTO 17007KT 9SM FEW130 BKN160 20/14 A3011 RMK SLP194 DENSITY ALT 1700FT=

TAF CYKF 251340Z 2514/2602 17010KT P6SM OVC160
BECMG 2514/2516 20015G25KT
FM251800 20015G25KT P6SM SCT060 OVC100 TEMPO 2518/2524 5SM -SHRA
BR OVC060
FM260000 18012G22KT P6SM -SHRA OVC060 PROB30 2600/2602 VRB20G35KT
3/4SM +TSRA BR BKN015 OVC040CB
RMK FCST BASED ON AUTO OBS. NXT FCST BY 252000Z=

TORONTO/BILLY BISHOP TORONTO CITY AIRPORT/ON    (show WxCam)

METAR CYTZ 251300Z AUTO 14003KT 100V200 9SM CLR 20/15 A3011 RMK SLP196 DENSITY ALT 700FT=
METAR CYTZ 251200Z AUTO 13003KT 100V180 9SM BKN066 20/15 A3011 RMK SLP196 DENSITY ALT 700FT=
METAR CYTZ 251100Z AUTO VRB02KT 9SM FEW060 BKN100 BKN140 20/14 A3012 RMK SLP199 DENSITY ALT 700FT=

TAF CYTZ 251340Z 2514/2614 17010KT P6SM SCT060 BKN140
FM252100 19010G20KT P6SM SCT060 OVC120 TEMPO 2521/2601 P6SM -SHRA
BKN060 OVC120
FM260400 16010KT P6SM -SHRA BKN050 OVC100
FM260800 18008KT P6SM -SHRA SCT008 OVC020
RMK FCST BASED ON AUTO OBS. NXT FCST BY 252000Z=

HAMILTON/ON    

METAR CYHM 251300Z 18010KT 15SM FEW055 OVC180 20/15 A3011 RMK SC1AC7 SLP196 DENSITY ALT 1400FT=
METAR CYHM 251200Z 18010KT 15SM FEW052 SCT110 BKN170 19/15 A3011 RMK SC2AC1AC4 SLP197 DENSITY ALT 1300FT=
METAR CYHM 251100Z 18008KT 15SM FEW055 SCT063 BKN100 OVC170 19/14 A3012 RMK CU1SC2AC2AC3 SLP198 DENSITY ALT 1200FT=

TAF CYHM 251139Z 2512/2612 18010KT P6SM SCT060 BKN100 OVC170
BECMG 2512/2514 20015G25KT
FM251800 20015G25KT P6SM BKN050 BKN100
FM252000 19012G22KT P6SM OVC060 TEMPO 2520/2602 P6SM -SHRA
FM260200 20010G20KT 6SM -SHRA BR OVC050
FM260600 20015G25KT 5SM -RA BR OVC015
FM260900 20015G25KT 4SM -RA BR SCT004 OVC008
RMK NXT FCST BY 251800Z=

BORDEN/ON    

METAR CYBN 251300Z AUTO 16006KT 9SM FEW046 SCT090 21/15 A3008 RMK SLP184=
METAR CYBN 251200Z AUTO 16008KT 9SM BKN090 21/15 A3008 RMK SLP185=
METAR CYBN 251100Z AUTO 15006KT 9SM BKN092 20/15 A3009 RMK SLP187=

TAF CYBN 251130Z 2512/2524 15005KT P6SM SCT040 OVC090
BECMG 2513/2515 19015G25KT
FM251800 20015G25KT P6SM OVC030 TEMPO 2518/2524 5SM -SHRA BR
OVC020
RMK FCST BASED ON AUTO OBS. NXT FCST BY 251800Z=

LONDON/ON    

METAR CYXU 251300Z 18009G15KT 15SM BKN170 OVC230 22/18 A3009 RMK AC6CS2 SLP188 DENSITY ALT 1800FT=
METAR CYXU 251200Z 17010G15KT 15SM FEW049 BKN180 OVC230 21/18 A3008 RMK SC1AC6AS2 SC TR SLP185 DENSITY ALT 1600FT=
METAR CYXU 251100Z 16006KT 15SM FEW049 OVC160 20/17 A3010 RMK SC2AC6 SLP190 DENSITY ALT 1500FT=

TAF CYXU 251139Z 2512/2612 16008KT P6SM FEW050 OVC160
BECMG 2512/2514 19012G22KT
FM251800 18012G22KT P6SM OVC050 TEMPO 2518/2521 4SM -SHRA BR
OVC020
FM252100 18012G22KT P6SM -RA OVC040 TEMPO 2521/2603 4SM -SHRA BR
OVC008 PROB30 2521/2603 3/4SM +TSRA BR BKN008 OVC040CB
FM260300 20015G30KT 4SM -RA BR BKN004 OVC010
BECMG 2607/2609 22012G22KT
RMK NXT FCST BY 251800Z=

TORONTO/BUTTONVILLE MUNICIPAL/ON    

LWIS CYKZ 251300Z AUTO 18009G20KT 160V230 21/14 A3011=
LWIS CYKZ 251200Z AUTO 20009G18KT 21/13 A3012=
LWIS CYKZ 251100Z AUTO 20007KT 20/13 A3012=

CYKZ - No TAF is issued for this station

Your time UTC time
Weather data provided by Environment Canada and NAV CANADA